createdAt,value
2022-12-20T00:09:57.731Z,27.23
2022-12-20T00:19:59.407Z,27.67
2022-12-20T00:30:00.907Z,29.80
2022-12-20T00:40:04.938Z,28.93
2022-12-20T00:50:11.644Z,26.57
2022-12-20T01:00:13.603Z,28.00
2022-12-20T01:10:15.706Z,28.50
2022-12-20T01:20:17.295Z,29.63
2022-12-20T01:30:18.911Z,29.43
2022-12-20T01:40:20.911Z,27.50
2022-12-20T01:50:24.085Z,28.53
2022-12-20T02:00:25.729Z,29.67
2022-12-20T02:10:44.754Z,30.70
2022-12-20T02:21:05.391Z,29.57
2022-12-20T02:31:13.218Z,28.20
2022-12-20T02:41:30.382Z,28.83
2022-12-20T02:51:33.358Z,29.63
2022-12-20T03:01:44.783Z,28.87
2022-12-20T03:11:46.446Z,29.37
2022-12-20T03:21:48.209Z,28.00
2022-12-20T03:31:49.859Z,27.80
2022-12-20T03:41:51.554Z,28.77
2022-12-20T03:51:53.709Z,29.70
2022-12-20T04:01:55.522Z,27.90
2022-12-20T04:11:57.259Z,28.73
2022-12-20T04:22:04.589Z,28.77
2022-12-20T04:32:20.461Z,30.00
2022-12-20T04:42:22.943Z,28.27
2022-12-20T04:52:47.963Z,28.77
2022-12-20T05:02:51.463Z,28.50
2022-12-20T05:12:55.311Z,29.03
2022-12-20T05:23:28.070Z,28.57
2022-12-20T05:33:38.505Z,27.37
2022-12-20T05:43:40.485Z,28.07
2022-12-20T05:53:42.518Z,27.57
2022-12-20T06:03:45.819Z,29.33
2022-12-20T06:13:50.747Z,28.13
2022-12-20T06:23:53.041Z,30.03
2022-12-20T06:33:55.694Z,29.50
2022-12-20T06:44:00.415Z,29.03
2022-12-20T06:54:02.319Z,28.87
2022-12-20T07:04:07.137Z,27.17
2022-12-20T07:14:08.680Z,27.33
2022-12-20T07:24:10.401Z,26.53
2022-12-20T07:34:11.947Z,26.13
2022-12-20T07:44:13.777Z,26.67
2022-12-20T07:54:26.781Z,26.33
2022-12-20T08:04:30.858Z,25.97
2022-12-20T08:14:32.323Z,27.33
2022-12-20T08:24:34.558Z,27.97
2022-12-20T08:34:36.269Z,27.63
2022-12-20T08:44:37.739Z,26.67
2022-12-20T08:54:39.216Z,26.97
2022-12-20T09:04:40.699Z,27.63
2022-12-20T09:14:42.447Z,25.00
2022-12-20T09:24:44.214Z,25.57
2022-12-20T09:34:47.321Z,26.13
2022-12-20T09:44:49.074Z,27.00
2022-12-20T09:55:06.549Z,24.83
2022-12-20T10:05:15.640Z,25.87
2022-12-20T10:15:28.953Z,23.93
2022-12-20T10:25:33.212Z,23.90
2022-12-20T10:35:40.793Z,27.33
2022-12-20T10:45:43.577Z,28.07
2022-12-20T10:55:45.196Z,27.87
2022-12-20T11:06:04.477Z,27.03
2022-12-20T11:16:06.415Z,26.57
2022-12-20T11:26:40.563Z,29.10
2022-12-20T11:37:03.996Z,29.77
2022-12-20T11:47:23.726Z,29.63
2022-12-20T11:57:48.355Z,29.73
2022-12-20T12:08:04.200Z,28.50
2022-12-20T12:18:17.768Z,28.67
2022-12-20T12:28:22.539Z,29.13
2022-12-20T12:38:33.208Z,28.67
2022-12-20T12:48:59.786Z,27.63
2022-12-20T12:59:07.356Z,30.13
2022-12-20T13:09:11.474Z,29.33
2022-12-20T13:19:35.928Z,29.13
2022-12-20T13:29:52.871Z,29.23
2022-12-20T13:39:55.576Z,29.30
2022-12-20T13:50:01.826Z,30.23
2022-12-20T14:00:07.623Z,29.17
2022-12-20T14:10:20.776Z,29.47
2022-12-20T14:20:35.106Z,29.17
2022-12-20T14:30:44.339Z,30.50
2022-12-20T14:40:53.623Z,29.00
2022-12-20T14:50:55.577Z,32.37
2022-12-20T15:01:14.853Z,30.63
2022-12-20T15:11:22.853Z,33.33
2022-12-20T15:21:32.976Z,31.47
2022-12-20T15:31:36.070Z,32.17
2022-12-20T15:41:39.936Z,32.50
2022-12-20T15:51:44.264Z,31.43
2022-12-20T16:01:46.027Z,31.90
2022-12-20T16:11:47.945Z,32.47
2022-12-20T16:21:52.298Z,31.77
2022-12-20T16:31:53.882Z,31.67
2022-12-20T16:41:55.385Z,31.80
2022-12-20T16:51:56.921Z,30.93
2022-12-20T17:01:58.571Z,36.87
2022-12-20T17:12:00.253Z,32.60
2022-12-20T17:32:25.642Z,31.77
2022-12-20T17:42:31.546Z,33.87
2022-12-20T17:52:33.335Z,33.50
2022-12-20T18:02:34.931Z,32.23
2022-12-20T18:12:37.734Z,35.03
2022-12-20T18:22:39.427Z,32.30
2022-12-20T18:32:41.230Z,34.70
2022-12-20T18:42:42.690Z,34.77
2022-12-20T18:52:46.072Z,34.93
2022-12-20T19:02:49.055Z,35.60
2022-12-20T19:12:50.656Z,36.40
2022-12-20T19:22:55.269Z,34.30
2022-12-20T19:32:56.752Z,34.27
2022-12-20T19:42:58.275Z,33.47
2022-12-20T19:52:59.848Z,36.37
2022-12-20T20:03:01.452Z,33.87
2022-12-20T20:13:04.026Z,35.03
2022-12-20T20:23:05.464Z,35.83
2022-12-20T20:33:08.333Z,36.27
2022-12-20T20:43:09.804Z,38.27
2022-12-20T20:53:12.025Z,35.83
2022-12-20T21:03:13.527Z,36.60
2022-12-20T21:13:15.694Z,36.17
2022-12-20T21:23:17.096Z,38.97
2022-12-20T21:33:18.544Z,37.13
2022-12-20T21:43:19.976Z,36.63
2022-12-20T21:53:21.433Z,35.53
2022-12-20T22:03:24.721Z,34.37
2022-12-20T22:13:27.116Z,35.37
2022-12-20T22:23:28.574Z,36.97
2022-12-20T22:33:29.986Z,35.90
2022-12-20T22:43:31.699Z,37.33
2022-12-20T22:53:34.048Z,35.40
2022-12-20T23:03:37.147Z,34.17
2022-12-20T23:13:58.359Z,34.97
2022-12-20T23:23:59.789Z,34.57
2022-12-20T23:34:01.991Z,35.33
2022-12-20T23:44:04.928Z,35.77
2022-12-20T23:54:06.359Z,35.87
